EWG7CA LFMN-EDDH
Flight info
| Callsign | EWG7CA |
|---|---|
| Flight time | N/A |
| Altitude | 38000 |
| Route | BASIP DCT ANAKI DCT ABESI DCT LOKTA DCT TEDGO DCT HAREM DCT LOHRE DCT ELNAT P605 NOLGO NOLGO3P |
| Aircraft | A320/M-SDE3FGHIRWY/LB1 |
Departure
| Time | N/A |
|---|---|
| Airport | Nice-Côte d'Azur Airport (LFMN) |
Arrival
| Time | 2026-04-24 20:03 |
|---|---|
| Airport | Hamburg Helmut Schmidt Airport (EDDH) |
| Time | Latitude | Longitude | Altitude | Speed | Heading |
|---|---|---|---|---|---|
| 2026-04-24 18:54 | 47.11969 | 9.10838 | 38167 ft | 448 kts | 1° |
| 2026-04-24 18:55 | 47.21303 | 9.11490 | 38157 ft | 447 kts | 1° |
| 2026-04-24 18:56 | 47.27528 | 9.11930 | 38141 ft | 448 kts | 1° |
| 2026-04-24 18:56 | 47.33764 | 9.12373 | 38142 ft | 449 kts | 1° |
| 2026-04-24 18:57 | 47.40007 | 9.12813 | 38136 ft | 450 kts | 1° |
| 2026-04-24 18:57 | 47.46258 | 9.13240 | 38147 ft | 450 kts | 1° |
| 2026-04-24 18:58 | 47.52514 | 9.13675 | 38152 ft | 450 kts | 1° |
| 2026-04-24 18:58 | 47.58778 | 9.14135 | 38154 ft | 450 kts | 1° |
| 2026-04-24 18:59 | 47.65036 | 9.14590 | 38156 ft | 450 kts | 0° |
| 2026-04-24 18:59 | 47.71252 | 9.15021 | 38161 ft | 450 kts | 0° |
| 2026-04-24 19:00 | 47.77507 | 9.15454 | 38160 ft | 450 kts | 0° |
| 2026-04-24 19:00 | 47.83761 | 9.15898 | 38158 ft | 450 kts | 0° |
| 2026-04-24 19:01 | 47.90013 | 9.16346 | 38168 ft | 450 kts | 0° |
| 2026-04-24 19:01 | 47.96260 | 9.16796 | 38169 ft | 449 kts | 0° |
| 2026-04-24 19:02 | 48.02507 | 9.17253 | 38166 ft | 449 kts | 0° |
| 2026-04-24 19:02 | 48.08747 | 9.17705 | 38173 ft | 449 kts | 0° |
| 2026-04-24 19:03 | 48.14986 | 9.18154 | 38168 ft | 449 kts | 0° |
| 2026-04-24 19:03 | 48.21218 | 9.18824 | 38160 ft | 450 kts | 3° |
| 2026-04-24 19:04 | 48.27434 | 9.19944 | 38157 ft | 450 kts | 5° |
| 2026-04-24 19:04 | 48.33650 | 9.21134 | 38164 ft | 450 kts | 4° |
| 2026-04-24 19:05 | 48.39861 | 9.22228 | 38159 ft | 449 kts | 3° |
| 2026-04-24 19:05 | 48.46073 | 9.23250 | 38149 ft | 449 kts | 3° |
| 2026-04-24 19:06 | 48.52297 | 9.24285 | 38160 ft | 449 kts | 4° |
| 2026-04-24 19:06 | 48.58492 | 9.25345 | 38162 ft | 449 kts | 4° |
| 2026-04-24 19:07 | 48.64701 | 9.26390 | 38160 ft | 449 kts | 3° |
| 2026-04-24 19:07 | 48.69866 | 9.27184 | 38160 ft | 449 kts | 2° |
| 2026-04-24 19:08 | 48.77137 | 9.28265 | 38169 ft | 449 kts | 2° |
| 2026-04-24 19:08 | 48.83353 | 9.29207 | 38161 ft | 449 kts | 2° |
| 2026-04-24 19:09 | 48.89568 | 9.30153 | 38153 ft | 449 kts | 2° |
| 2026-04-24 19:09 | 48.95784 | 9.31109 | 38157 ft | 449 kts | 2° |
| 2026-04-24 19:10 | 49.01999 | 9.32074 | 38153 ft | 449 kts | 2° |
| 2026-04-24 19:10 | 49.08213 | 9.33043 | 38147 ft | 449 kts | 2° |
| 2026-04-24 19:11 | 49.14394 | 9.34000 | 38141 ft | 449 kts | 2° |
| 2026-04-24 19:11 | 49.20609 | 9.34961 | 38154 ft | 449 kts | 2° |
| 2026-04-24 19:12 | 49.26824 | 9.35930 | 38149 ft | 449 kts | 2° |
| 2026-04-24 19:12 | 49.33044 | 9.36908 | 38137 ft | 450 kts | 2° |
| 2026-04-24 19:13 | 49.38265 | 9.37727 | 38146 ft | 450 kts | 1° |
| 2026-04-24 19:13 | 49.45521 | 9.38858 | 38140 ft | 451 kts | 1° |
| 2026-04-24 19:14 | 49.51767 | 9.39839 | 38137 ft | 451 kts | 1° |
| 2026-04-24 19:14 | 49.58015 | 9.40823 | 38136 ft | 452 kts | 1° |
| 2026-04-24 19:15 | 49.64264 | 9.41820 | 38152 ft | 452 kts | 1° |
| 2026-04-24 19:15 | 49.70514 | 9.42822 | 38153 ft | 452 kts | 1° |
| 2026-04-24 19:16 | 49.79894 | 9.44329 | 38156 ft | 452 kts | 1° |
| 2026-04-24 19:16 | 49.86147 | 9.45334 | 38172 ft | 452 kts | 1° |
| 2026-04-24 19:17 | 49.92395 | 9.46336 | 38165 ft | 451 kts | 1° |
| 2026-04-24 19:17 | 49.98643 | 9.47337 | 38166 ft | 451 kts | 1° |
| 2026-04-24 19:18 | 50.04882 | 9.48348 | 38186 ft | 451 kts | 1° |
| 2026-04-24 19:18 | 50.11122 | 9.49388 | 38178 ft | 451 kts | 1° |
| 2026-04-24 19:19 | 50.17357 | 9.50506 | 38180 ft | 451 kts | 2° |
| 2026-04-24 19:19 | 50.23586 | 9.51751 | 38180 ft | 452 kts | 2° |
| 2026-04-24 19:20 | 50.29811 | 9.53061 | 38186 ft | 451 kts | 2° |
| 2026-04-24 19:20 | 50.36040 | 9.54363 | 38188 ft | 451 kts | 2° |
| 2026-04-24 19:21 | 50.42219 | 9.55643 | 38191 ft | 451 kts | 2° |
| 2026-04-24 19:21 | 50.48441 | 9.56934 | 38210 ft | 451 kts | 2° |
| 2026-04-24 19:22 | 50.54659 | 9.58227 | 38199 ft | 451 kts | 2° |
| 2026-04-24 19:22 | 50.60870 | 9.59525 | 38194 ft | 450 kts | 2° |
| 2026-04-24 19:23 | 50.67074 | 9.60824 | 38191 ft | 450 kts | 2° |
| 2026-04-24 19:23 | 50.73272 | 9.62118 | 38191 ft | 449 kts | 2° |
| 2026-04-24 19:24 | 50.79462 | 9.63412 | 38184 ft | 449 kts | 2° |
| 2026-04-24 19:24 | 50.85653 | 9.64703 | 38180 ft | 448 kts | 2° |
| 2026-04-24 19:25 | 50.91835 | 9.66003 | 38182 ft | 448 kts | 2° |
| 2026-04-24 19:25 | 50.98018 | 9.67320 | 38186 ft | 448 kts | 2° |
| 2026-04-24 19:26 | 51.04201 | 9.68639 | 38187 ft | 448 kts | 2° |
| 2026-04-24 19:26 | 51.10383 | 9.69946 | 38176 ft | 448 kts | 2° |
| 2026-04-24 19:27 | 51.16562 | 9.71262 | 38179 ft | 448 kts | 2° |
| 2026-04-24 19:27 | 51.22743 | 9.72584 | 38198 ft | 447 kts | 2° |
| 2026-04-24 19:28 | 51.28868 | 9.73896 | 38189 ft | 447 kts | 2° |
| 2026-04-24 19:28 | 51.35028 | 9.75216 | 38181 ft | 447 kts | 2° |
| 2026-04-24 19:29 | 51.44255 | 9.77206 | 38197 ft | 446 kts | 2° |
| 2026-04-24 19:30 | 51.50404 | 9.78532 | 38187 ft | 445 kts | 2° |
| 2026-04-24 19:30 | 51.56538 | 9.79847 | 38183 ft | 445 kts | 2° |
| 2026-04-24 19:31 | 51.62666 | 9.81187 | 38181 ft | 444 kts | 2° |
| 2026-04-24 19:31 | 51.68788 | 9.82527 | 38192 ft | 444 kts | 2° |
| 2026-04-24 19:32 | 51.74900 | 9.83861 | 38187 ft | 443 kts | 2° |
| 2026-04-24 19:32 | 51.81004 | 9.85186 | 38181 ft | 443 kts | 2° |
| 2026-04-24 19:33 | 51.87111 | 9.86525 | 38196 ft | 442 kts | 2° |
| 2026-04-24 19:33 | 51.93205 | 9.87875 | 38187 ft | 442 kts | 2° |
| 2026-04-24 19:34 | 51.99289 | 9.89222 | 38181 ft | 441 kts | 2° |
| 2026-04-24 19:34 | 52.05370 | 9.90556 | 38175 ft | 441 kts | 2° |
| 2026-04-24 19:35 | 52.11446 | 9.91905 | 38192 ft | 441 kts | 2° |
| 2026-04-24 19:35 | 52.17516 | 9.93260 | 38189 ft | 440 kts | 2° |
| 2026-04-24 19:36 | 52.23581 | 9.94620 | 38191 ft | 440 kts | 2° |
| 2026-04-24 19:36 | 52.29607 | 9.95967 | 38190 ft | 439 kts | 2° |
| 2026-04-24 19:37 | 52.35663 | 9.97324 | 38046 ft | 438 kts | 2° |
| 2026-04-24 19:37 | 52.38681 | 9.98004 | 37389 ft | 438 kts | 2° |
| 2026-04-24 19:37 | 52.41703 | 9.98688 | 36705 ft | 438 kts | 2° |
| 2026-04-24 19:37 | 52.44712 | 9.99369 | 36073 ft | 437 kts | 2° |
| 2026-04-24 19:38 | 52.47722 | 10.00048 | 35439 ft | 436 kts | 1° |
| 2026-04-24 19:38 | 52.50725 | 10.00725 | 34822 ft | 435 kts | 1° |
| 2026-04-24 19:38 | 52.53714 | 10.01401 | 34219 ft | 434 kts | 1° |
| 2026-04-24 19:38 | 52.56691 | 10.02354 | 33511 ft | 439 kts | 9° |
| 2026-04-24 19:39 | 52.59644 | 10.03668 | 32728 ft | 441 kts | 8° |
| 2026-04-24 19:39 | 52.62611 | 10.04997 | 31957 ft | 442 kts | 9° |
| 2026-04-24 19:39 | 52.65585 | 10.06332 | 31197 ft | 443 kts | 9° |
| 2026-04-24 19:39 | 52.68557 | 10.07661 | 30456 ft | 443 kts | 9° |
| 2026-04-24 19:40 | 52.71537 | 10.08995 | 29645 ft | 443 kts | 9° |
| 2026-04-24 19:40 | 52.74509 | 10.10329 | 28804 ft | 443 kts | 9° |
| 2026-04-24 19:40 | 52.77498 | 10.11497 | 27990 ft | 438 kts | 3° |
| 2026-04-24 19:40 | 52.80499 | 10.11878 | 27206 ft | 431 kts | 356° |
| 2026-04-24 19:41 | 52.82485 | 10.11942 | 26712 ft | 430 kts | 356° |
| 2026-04-24 19:41 | 52.85466 | 10.12037 | 25958 ft | 428 kts | 356° |
| 2026-04-24 19:41 | 52.88443 | 10.12129 | 25218 ft | 427 kts | 356° |
| 2026-04-24 19:41 | 52.91400 | 10.12222 | 24496 ft | 425 kts | 357° |
| 2026-04-24 19:42 | 52.94351 | 10.12320 | 23806 ft | 423 kts | 357° |
| 2026-04-24 19:42 | 52.97289 | 10.12420 | 22998 ft | 421 kts | 357° |
| 2026-04-24 19:42 | 53.00210 | 10.12519 | 22198 ft | 420 kts | 357° |
| 2026-04-24 19:42 | 53.03127 | 10.12618 | 21418 ft | 418 kts | 358° |
| 2026-04-24 19:43 | 53.06026 | 10.12716 | 20672 ft | 416 kts | 358° |
| 2026-04-24 19:43 | 53.08917 | 10.12812 | 19919 ft | 414 kts | 358° |
| 2026-04-24 19:43 | 53.11787 | 10.12906 | 19196 ft | 412 kts | 358° |
| 2026-04-24 19:43 | 53.14627 | 10.13001 | 18554 ft | 402 kts | 358° |
| 2026-04-24 19:44 | 53.17380 | 10.13097 | 17849 ft | 389 kts | 358° |
| 2026-04-24 19:44 | 53.20045 | 10.13187 | 17159 ft | 378 kts | 358° |
| 2026-04-24 19:44 | 53.22642 | 10.13273 | 16510 ft | 368 kts | 358° |
| 2026-04-24 19:44 | 53.25165 | 10.13355 | 15901 ft | 358 kts | 358° |
| 2026-04-24 19:45 | 53.27622 | 10.13435 | 15400 ft | 347 kts | 358° |
| 2026-04-24 19:45 | 53.29999 | 10.13513 | 14912 ft | 337 kts | 358° |
| 2026-04-24 19:45 | 53.32314 | 10.13592 | 14441 ft | 328 kts | 358° |
| 2026-04-24 19:45 | 53.34568 | 10.13671 | 13965 ft | 320 kts | 358° |
| 2026-04-24 19:46 | 53.36769 | 10.13747 | 13435 ft | 314 kts | 358° |
| 2026-04-24 19:46 | 53.38952 | 10.13816 | 12923 ft | 314 kts | 358° |
| 2026-04-24 19:46 | 53.41099 | 10.13652 | 12606 ft | 306 kts | 352° |
| 2026-04-24 19:46 | 53.43208 | 10.13375 | 12223 ft | 302 kts | 353° |
| 2026-04-24 19:47 | 53.45296 | 10.13112 | 11819 ft | 299 kts | 353° |
| 2026-04-24 19:47 | 53.47364 | 10.12858 | 11423 ft | 297 kts | 353° |
| 2026-04-24 19:47 | 53.49418 | 10.12601 | 11027 ft | 295 kts | 353° |
| 2026-04-24 19:47 | 53.51451 | 10.12343 | 10639 ft | 292 kts | 353° |
| 2026-04-24 19:48 | 53.53467 | 10.12086 | 10327 ft | 287 kts | 353° |
| 2026-04-24 19:48 | 53.55414 | 10.11840 | 10210 ft | 275 kts | 353° |
| 2026-04-24 19:48 | 53.59032 | 10.13125 | 9720 ft | 276 kts | 31° |
| 2026-04-24 19:49 | 53.61646 | 10.17979 | 8918 ft | 281 kts | 45° |
| 2026-04-24 19:49 | 53.64125 | 10.23020 | 8143 ft | 278 kts | 45° |
| 2026-04-24 19:50 | 53.67801 | 10.30462 | 6990 ft | 273 kts | 45° |
| 2026-04-24 19:50 | 53.69010 | 10.32912 | 6574 ft | 271 kts | 45° |
| 2026-04-24 19:51 | 53.71414 | 10.37777 | 5764 ft | 268 kts | 45° |
| 2026-04-24 19:51 | 53.72603 | 10.40185 | 5356 ft | 266 kts | 45° |
| 2026-04-24 19:52 | 53.74960 | 10.44970 | 4983 ft | 264 kts | 45° |
| 2026-04-24 19:52 | 53.76142 | 10.47367 | 4998 ft | 266 kts | 45° |
| 2026-04-24 19:52 | 53.77304 | 10.49729 | 4992 ft | 265 kts | 45° |
| 2026-04-24 19:52 | 53.78480 | 10.52121 | 4999 ft | 264 kts | 45° |
| 2026-04-24 19:53 | 53.79673 | 10.54552 | 4987 ft | 266 kts | 44° |
| 2026-04-24 19:53 | 53.80838 | 10.56930 | 4983 ft | 266 kts | 45° |
| 2026-04-24 19:53 | 53.83470 | 10.61085 | 4983 ft | 253 kts | 15° |
| 2026-04-24 19:54 | 53.85153 | 10.61385 | 4980 ft | 237 kts | 346° |
| 2026-04-24 19:54 | 53.86555 | 10.60226 | 4982 ft | 223 kts | 316° |
| 2026-04-24 19:54 | 53.87318 | 10.57965 | 4984 ft | 227 kts | 285° |
| 2026-04-24 19:54 | 53.87302 | 10.55257 | 4986 ft | 234 kts | 267° |
| 2026-04-24 19:55 | 53.87121 | 10.53407 | 4986 ft | 236 kts | 265° |
| 2026-04-24 19:55 | 53.86719 | 10.49791 | 4979 ft | 236 kts | 264° |
| 2026-04-24 19:55 | 53.86375 | 10.47063 | 4985 ft | 239 kts | 255° |
| 2026-04-24 19:55 | 53.85480 | 10.44663 | 4989 ft | 241 kts | 236° |
| 2026-04-24 19:56 | 53.84414 | 10.42505 | 4993 ft | 237 kts | 236° |
| 2026-04-24 19:56 | 53.83381 | 10.40407 | 4989 ft | 225 kts | 237° |
| 2026-04-24 19:56 | 53.82409 | 10.38409 | 4992 ft | 217 kts | 237° |
| 2026-04-24 19:56 | 53.81456 | 10.36443 | 4993 ft | 212 kts | 237° |
| 2026-04-24 19:57 | 53.80537 | 10.34552 | 4994 ft | 206 kts | 237° |
| 2026-04-24 19:57 | 53.79627 | 10.32681 | 4958 ft | 206 kts | 237° |
| 2026-04-24 19:57 | 53.78716 | 10.30807 | 4736 ft | 205 kts | 237° |
| 2026-04-24 19:57 | 53.77810 | 10.28949 | 4463 ft | 205 kts | 237° |
| 2026-04-24 19:58 | 53.76904 | 10.27090 | 4196 ft | 205 kts | 238° |
| 2026-04-24 19:58 | 53.75997 | 10.25232 | 3922 ft | 205 kts | 238° |
| 2026-04-24 19:58 | 53.75089 | 10.23372 | 3650 ft | 205 kts | 237° |
| 2026-04-24 19:58 | 53.74186 | 10.21526 | 3377 ft | 203 kts | 238° |
| 2026-04-24 19:59 | 53.73296 | 10.19708 | 3106 ft | 199 kts | 238° |
| 2026-04-24 19:59 | 53.72416 | 10.17910 | 2838 ft | 198 kts | 238° |
| 2026-04-24 19:59 | 53.71546 | 10.16134 | 2573 ft | 194 kts | 237° |
| 2026-04-24 19:59 | 53.70695 | 10.14400 | 2308 ft | 189 kts | 238° |
| 2026-04-24 20:00 | 53.69869 | 10.12716 | 2054 ft | 184 kts | 237° |
| 2026-04-24 20:00 | 53.69068 | 10.11087 | 1793 ft | 175 kts | 237° |
| 2026-04-24 20:00 | 53.68324 | 10.09575 | 1568 ft | 160 kts | 238° |
| 2026-04-24 20:00 | 53.67648 | 10.08204 | 1361 ft | 143 kts | 238° |
| 2026-04-24 20:01 | 53.67044 | 10.06973 | 1147 ft | 135 kts | 239° |
| 2026-04-24 20:01 | 53.66447 | 10.05756 | 970 ft | 132 kts | 238° |
| 2026-04-24 20:01 | 53.65882 | 10.04604 | 788 ft | 127 kts | 238° |
| 2026-04-24 20:01 | 53.65336 | 10.03480 | 595 ft | 124 kts | 238° |
| 2026-04-24 20:02 | 53.64968 | 10.02708 | 487 ft | 125 kts | 237° |
| 2026-04-24 20:02 | 53.64218 | 10.01203 | 280 ft | 127 kts | 234° |
| 2026-04-24 20:02 | 53.63654 | 10.00076 | 118 ft | 125 kts | 234° |
| 2026-04-24 20:02 | 53.63132 | 9.99006 | 53 ft | 105 kts | 232° |
| 2026-04-24 20:03 | 53.62774 | 9.98288 | 53 ft | 55 kts | 230° |
| 2026-04-24 20:03 | 53.62609 | 9.97958 | 52 ft | 30 kts | 230° |
| 2026-04-24 20:03 | 53.62499 | 9.97774 | 50 ft | 17 kts | 190° |
| 2026-04-24 20:03 | 53.62426 | 9.97869 | 51 ft | 11 kts | 106° |
| 2026-04-24 20:04 | 53.62429 | 9.97953 | 51 ft | 0 kts | 80° |
| 2026-04-24 20:05 | 53.62434 | 9.97990 | 51 ft | 7 kts | 75° |
| 2026-04-24 20:05 | 53.62463 | 9.98093 | 50 ft | 10 kts | 57° |
| 2026-04-24 20:05 | 53.62505 | 9.98186 | 50 ft | 11 kts | 50° |
| 2026-04-24 20:05 | 53.62568 | 9.98311 | 51 ft | 16 kts | 50° |
| 2026-04-24 20:06 | 53.62641 | 9.98458 | 51 ft | 17 kts | 50° |
| 2026-04-24 20:06 | 53.62720 | 9.98618 | 51 ft | 17 kts | 50° |
| 2026-04-24 20:06 | 53.62796 | 9.98770 | 51 ft | 16 kts | 50° |
| 2026-04-24 20:06 | 53.62867 | 9.98913 | 51 ft | 15 kts | 50° |
| 2026-04-24 20:07 | 53.62912 | 9.99003 | 51 ft | 14 kts | 50° |
| 2026-04-24 20:07 | 53.62967 | 9.99114 | 51 ft | 8 kts | 50° |
| 2026-04-24 20:07 | 53.63000 | 9.99182 | 51 ft | 7 kts | 50° |
| 2026-04-24 20:07 | 53.63033 | 9.99252 | 51 ft | 8 kts | 52° |
| 2026-04-24 20:08 | 53.63069 | 9.99333 | 51 ft | 8 kts | 54° |
| 2026-04-24 20:08 | 53.63081 | 9.99363 | 51 ft | 0 kts | 54° |
| 2026-04-24 20:09 | 53.63101 | 9.99413 | 50 ft | 12 kts | 57° |
| 2026-04-24 20:09 | 53.63164 | 9.99560 | 51 ft | 17 kts | 50° |
| 2026-04-24 20:09 | 53.63211 | 9.99652 | 51 ft | 7 kts | 50° |
| 2026-04-24 20:09 | 53.63246 | 9.99717 | 51 ft | 8 kts | 44° |
| 2026-04-24 20:10 | 53.63286 | 9.99780 | 51 ft | 8 kts | 46° |
| 2026-04-24 20:10 | 53.63331 | 9.99868 | 51 ft | 12 kts | 50° |
| 2026-04-24 20:10 | 53.63389 | 9.99988 | 51 ft | 14 kts | 50° |
| 2026-04-24 20:10 | 53.63427 | 10.00105 | 51 ft | 11 kts | 92° |
| 2026-04-24 20:11 | 53.63385 | 10.00211 | 51 ft | 11 kts | 147° |
| 2026-04-24 20:11 | 53.63339 | 10.00239 | 49 ft | 6 kts | 149° |
| 2026-04-24 20:11 | 53.63330 | 10.00308 | 51 ft | 7 kts | 86° |
| 2026-04-24 20:11 | 53.63332 | 10.00353 | 51 ft | 3 kts | 85° |
| 2026-04-24 20:12 | 53.63333 | 10.00359 | 51 ft | 0 kts | 84° |